메인 페이지
METAR-TAF:

METAR-TAF

공항 :

야프 국제공항

야프 섬, 미크로네시아

위도: 09-29N, 경도: 138-05E, 고도: 28m

현재 날씨관측

예보는 1 시간 3분 전, 19:50시(UTC)에 발표되었습니다.
여러 방향의 바람 5kt
온도 26°C
습도 89%
기압 1008 hPa
시정: 17.7km
고도 1600ft 상공 구름 보통, 타워링 적운.
고도 13000ft 상공 흐림
약한소나기

METAR: PTYA 201950Z VRB05KT 11SM -SHRA SCT016TCU OVC130 26/24 A2976 RMK TCU ALQDS SLP079 T02640243

시각: 06:53 (20:53 UTC)

예보

예보는 3 시간 8분 전, 17:45시(UTC)에 발표되었습니다.
예보 대상 시간: 20일 18시부터 21일 18시까지 (UTC)
서남서10kt
시정: 10km
고도 1600ft 상공 구름 조금
고도 4000ft 상공 구름 보통
고도 13000ft 상공 흐림
시계 내 소나기
일시적
20일 19시부터 20일 23시까지 (UTC)
시정: 8.0km
고도 1400ft 상공 구름 보통, 적란운.
고도 2500ft 상공 구름 많음
고도 4000ft 상공 흐림
뇌우, 약한비

TAF: PTYA 201745Z 2018/2118 24010KT P6SM VCSH FEW016 SCT040 OVC130 TEMPO 2019/2023 5SM -TSRA SCT014CB BKN025 OVC040

4,000개 이상의 공항 관측 자료 및 예보 (METAR 및 TAF 보고).

지도상에서 검색 가능한 기상관측소가 노란 점과 빨간 점으로 표시되어 있습니다.

기상관측소 명을 보려면 표시 위로 마우스를 이동하세요.

날씨 관측과 예보를 보려면 클릭하세요.

지도 변경 : 확대하려면 엑스 표시가 있는 녹색 버튼, 축소하려면 빼기 표시가 있는 녹색 버튼, 다음 페이지의 지도를 보려면 녹색 화살표를 클릭하세요.


METAR-TAF: